Time;durP1;ratioP1;P1;durP2;ratioP2;P2;SDS_P1;SDS_P2;PMS_P1;PMS_P2;Temp;Humidity;BMP_temperature;BMP_pressure;BME280_temperature;BME280_humidity;BME280_pressure;Samples;Min_cycle;Max_cycle;Signal;HPM_P1;HPM_P2
2023/12/24 00:01:44;;;;;;;5.57;2.40;;;;;;;11.51;78.19;100646.94;3606943;39;20101;-65
2023/12/24 00:04:12;;;;;;;7.88;2.10;;;;;;;11.49;78.32;100650.72;3604434;39;20059;-65
2023/12/24 00:06:38;;;;;;;3.83;1.92;;;;;;;11.54;78.21;100645.84;3606725;39;20043;-65
2023/12/24 00:09:04;;;;;;;7.28;2.72;;;;;;;11.51;78.20;100641.56;3605519;39;20102;-65
2023/12/24 00:11:30;;;;;;;8.10;2.22;;;;;;;11.50;78.23;100638.97;3605667;39;20055;-66
2023/12/24 00:13:56;;;;;;;8.68;2.50;;;;;;;11.47;77.82;100644.56;3606507;39;20059;-65
2023/12/24 00:16:21;;;;;;;5.80;2.20;;;;;;;11.50;77.94;100647.91;3610212;39;20120;-65
2023/12/24 00:18:47;;;;;;;7.60;2.25;;;;;;;11.53;77.14;100647.69;3609699;39;20047;-65
2023/12/24 00:21:13;;;;;;;4.53;2.20;;;;;;;11.53;76.83;100661.16;3606279;39;20058;-66
2023/12/24 00:23:39;;;;;;;7.15;1.85;;;;;;;11.54;75.96;100657.47;3608931;39;20297;-65
2023/12/24 00:26:05;;;;;;;8.43;2.00;;;;;;;11.54;75.93;100659.31;3607184;39;20051;-65
2023/12/24 00:28:31;;;;;;;3.72;1.95;;;;;;;11.53;75.77;100655.75;3608532;39;20058;-65
2023/12/24 00:30:57;;;;;;;5.38;1.98;;;;;;;11.54;75.27;100657.47;3607811;39;20050;-65
2023/12/24 00:33:22;;;;;;;6.65;1.60;;;;;;;11.58;74.44;100642.88;3607651;39;20081;-65
2023/12/24 00:35:48;;;;;;;2.58;1.50;;;;;;;11.60;74.56;100645.44;3607558;39;20398;-65
2023/12/24 00:38:14;;;;;;;3.28;1.60;;;;;;;11.54;73.95;100624.31;3610533;39;20062;-65
2023/12/24 00:40:39;;;;;;;6.85;1.88;;;;;;;11.59;73.92;100630.25;3608474;39;20387;-65
2023/12/24 00:43:05;;;;;;;4.07;1.50;;;;;;;11.59;73.27;100628.44;3605035;39;20053;-65
2023/12/24 00:45:31;;;;;;;2.70;1.52;;;;;;;11.58;73.22;100604.31;3607075;39;20081;-65
2023/12/24 00:47:57;;;;;;;4.18;1.42;;;;;;;11.59;73.19;100600.66;3607847;39;20054;-66
2023/12/24 00:50:23;;;;;;;6.82;1.55;;;;;;;11.57;72.88;100591.81;3608124;39;20063;-66
2023/12/24 00:52:49;;;;;;;6.72;1.75;;;;;;;11.54;73.37;100575.88;3608917;39;20067;-66
2023/12/24 00:55:15;;;;;;;4.63;1.45;;;;;;;11.44;73.14;100564.88;3599972;39;20088;-66
2023/12/24 00:57:41;;;;;;;4.45;1.35;;;;;;;11.46;72.91;100570.16;3609669;39;20472;-65
2023/12/24 01:00:07;;;;;;;6.18;1.17;;;;;;;11.46;73.43;100559.41;3609033;39;20139;-65
2023/12/24 01:02:33;;;;;;;3.70;1.27;;;;;;;11.47;72.90;100555.72;3611055;39;20042;-65
2023/12/24 01:04:59;;;;;;;3.33;1.20;;;;;;;11.50;73.00;100547.44;3611238;39;20064;-66
2023/12/24 01:07:24;;;;;;;4.18;1.42;;;;;;;11.52;73.29;100518.59;3609221;39;20094;-65
2023/12/24 01:09:51;;;;;;;3.97;1.38;;;;;;;11.48;72.91;100501.81;3607428;39;20054;-65
2023/12/24 01:12:16;;;;;;;3.72;1.27;;;;;;;11.51;72.95;100512.38;3608299;39;20098;-65
2023/12/24 01:14:42;;;;;;;4.93;1.35;;;;;;;11.51;73.48;100503.41;3609171;39;20051;-65
2023/12/24 01:17:08;;;;;;;4.22;1.33;;;;;;;11.54;73.41;100512.13;3607767;39;20334;-65
2023/12/24 01:19:33;;;;;;;6.00;1.33;;;;;;;11.52;73.53;100503.31;3609376;39;20058;-66
2023/12/24 01:21:59;;;;;;;7.80;1.75;;;;;;;11.56;73.32;100503.94;3606010;39;20059;-66
2023/12/24 01:24:25;;;;;;;4.25;1.40;;;;;;;11.56;73.33;100496.72;3608561;39;20053;-65
2023/12/24 01:26:51;;;;;;;4.82;1.48;;;;;;;11.59;74.01;100498.34;3609451;39;20051;-66
2023/12/24 01:29:17;;;;;;;7.55;1.60;;;;;;;11.60;73.88;100505.44;3609126;39;20051;-65
2023/12/24 01:31:42;;;;;;;7.40;1.92;;;;;;;11.59;74.36;100509.97;3608694;39;20388;-65
2023/12/24 01:34:08;;;;;;;5.22;1.30;;;;;;;11.60;74.66;100517.06;3606382;39;20066;-66
2023/12/24 01:36:38;;;;;;;6.00;1.40;;;;;;;11.62;74.84;100506.19;3607850;39;20055;-65
2023/12/24 01:39:03;;;;;;;6.75;1.73;;;;;;;11.66;74.65;100514.91;3606411;39;20047;-66
2023/12/24 01:41:31;;;;;;;3.80;1.20;;;;;;;11.61;74.87;100508.03;3607727;39;20061;-65
2023/12/24 01:43:56;;;;;;;6.13;1.40;;;;;;;11.70;74.84;100517.25;3607934;39;20050;-65
2023/12/24 01:46:23;;;;;;;3.75;1.50;;;;;;;11.61;75.26;100512.56;3608465;39;20056;-65
2023/12/24 01:48:51;;;;;;;3.42;1.35;;;;;;;11.68;75.66;100519.22;3608556;39;20340;-65
2023/12/24 01:51:20;;;;;;;4.68;1.48;;;;;;;11.68;76.41;100519.22;3608557;39;20123;-65
2023/12/24 01:53:50;;;;;;;3.58;1.00;;;;;;;11.67;76.93;100536.38;3608468;39;20047;-65
2023/12/24 01:56:21;;;;;;;3.58;1.27;;;;;;;11.61;78.35;100524.19;3606417;39;20087;-65
2023/12/24 01:58:47;;;;;;;5.25;1.25;;;;;;;10.93;78.47;100412.38;3608752;39;20079;-66
2023/12/24 02:01:13;;;;;;;5.93;1.92;;;;;;;11.58;79.08;100526.25;3607592;39;20446;-66
2023/12/24 02:03:39;;;;;;;4.25;1.30;;;;;;;11.62;79.32;100525.03;3609345;39;20054;-65
2023/12/24 02:06:09;;;;;;;5.18;1.40;;;;;;;11.61;79.95;100518.81;3606769;39;20048;-65
2023/12/24 02:08:36;;;;;;;4.55;1.55;;;;;;;10.62;80.98;100359.00;3607331;39;20095;-65
2023/12/24 02:11:03;;;;;;;7.25;1.50;;;;;;;11.52;82.18;100521.28;3609707;39;20085;-65
2023/12/24 02:13:30;;;;;;;5.35;2.15;;;;;;;11.45;83.07;100510.09;3609067;39;20103;-64
2023/12/24 02:16:01;;;;;;;5.85;2.60;;;;;;;11.38;83.93;100517.75;3607857;39;20059;-64
2023/12/24 02:18:26;;;;;;;3.05;1.60;;;;;;;11.34;85.35;100515.38;3607082;39;20312;-64
2023/12/24 02:20:52;;;;;;;5.90;2.03;;;;;;;11.31;86.07;100515.56;3609419;39;20058;-64
2023/12/24 02:23:17;;;;;;;7.53;2.35;;;;;;;11.27;86.50;100503.31;3608036;39;20054;-64
2023/12/24 02:25:49;;;;;;;6.53;2.45;;;;;;;11.24;87.29;100499.00;3608317;39;20062;-64
2023/12/24 02:28:25;;;;;;;5.85;2.33;;;;;;;11.19;88.13;100494.91;3601868;39;20059;-64
2023/12/24 02:31:01;;;;;;;6.30;3.25;;;;;;;11.16;89.20;100495.97;3608667;39;20050;-65
2023/12/24 02:33:36;;;;;;;6.60;2.45;;;;;;;11.08;90.14;100483.06;3608100;39;20344;-65
2023/12/24 02:36:07;;;;;;;4.97;2.80;;;;;;;11.07;91.85;100488.56;3607030;39;20059;-65
2023/12/24 02:38:32;;;;;;;6.05;3.28;;;;;;;10.25;92.59;100345.41;3609228;39;20095;-65
2023/12/24 02:40:58;;;;;;;7.20;3.17;;;;;;;10.30;93.80;100367.47;3604185;39;20420;-65
2023/12/24 02:43:23;;;;;;;4.97;2.60;;;;;;;10.03;94.71;100310.25;3607239;39;20047;-65
2023/12/24 02:45:49;;;;;;;6.88;2.92;;;;;;;10.85;95.41;100463.16;3608769;39;20272;-65
2023/12/24 02:48:14;;;;;;;7.90;2.38;;;;;;;10.85;96.65;100457.78;3607536;39;20066;-65
2023/12/24 02:50:40;;;;;;;5.35;2.88;;;;;;;10.80;97.37;100457.22;3607998;39;20046;-65
2023/12/24 02:53:06;;;;;;;4.55;2.47;;;;;;;10.76;97.45;100455.72;3607770;39;20042;-65
2023/12/24 02:55:31;;;;;;;5.38;2.55;;;;;;;10.74;97.96;100454.09;3607158;39;20066;-65
2023/12/24 02:57:58;;;;;;;8.23;2.88;;;;;;;10.75;98.75;100450.44;3608319;39;20051;-65
2023/12/24 03:00:23;;;;;;;5.68;2.63;;;;;;;10.74;99.17;100435.28;3607949;39;20124;-65
2023/12/24 03:02:49;;;;;;;4.95;2.47;;;;;;;10.72;99.71;100451.53;3608176;39;20051;-65
2023/12/24 03:05:14;;;;;;;3.60;2.38;;;;;;;10.72;100.00;100442.56;3606901;39;20768;-65
2023/12/24 03:07:40;;;;;;;8.13;2.63;;;;;;;10.70;99.96;100434.63;3612814;39;20973;-65
2023/12/24 03:10:06;;;;;;;3.33;2.00;;;;;;;10.67;100.00;100438.38;3610924;39;20054;-65
2023/12/24 03:12:32;;;;;;;4.82;2.05;;;;;;;10.73;100.00;100439.78;3610504;39;20090;-65
2023/12/24 03:14:58;;;;;;;4.57;2.15;;;;;;;10.72;100.00;100431.81;3610555;39;20050;-65
2023/12/24 03:17:23;;;;;;;5.25;2.15;;;;;;;10.73;100.00;100437.09;3612796;39;20055;-66
2023/12/24 03:19:49;;;;;;;5.38;1.85;;;;;;;10.67;100.00;100426.78;3617517;39;20859;-66
2023/12/24 03:22:14;;;;;;;3.33;1.58;;;;;;;10.74;100.00;100425.38;3608203;39;20126;-65
2023/12/24 03:24:40;;;;;;;4.93;1.70;;;;;;;10.69;100.00;100406.03;3608260;39;20626;-65
2023/12/24 03:27:06;;;;;;;5.07;1.70;;;;;;;10.68;100.00;100393.53;3606482;39;20051;-66
2023/12/24 03:29:32;;;;;;;1.40;1.30;;;;;;;10.72;100.00;100408.50;3607798;39;20053;-65
2023/12/24 03:31:57;;;;;;;3.17;1.42;;;;;;;10.73;100.00;100396.78;3606907;39;20051;-65
2023/12/24 03:34:23;;;;;;;3.05;1.13;;;;;;;10.71;100.00;100390.63;3605985;39;20093;-65
2023/12/24 03:36:49;;;;;;;1.88;0.80;;;;;;;10.75;100.00;100399.34;3607497;39;20053;-66
2023/12/24 03:39:14;;;;;;;1.73;1.17;;;;;;;10.75;100.00;100400.22;3606015;39;20346;-65
2023/12/24 03:41:40;;;;;;;1.15;0.80;;;;;;;10.77;100.00;100387.53;3607516;39;20065;-66
2023/12/24 03:44:07;;;;;;;2.08;0.63;;;;;;;10.82;100.00;100384.53;3606627;39;20051;-66
2023/12/24 03:46:32;;;;;;;1.02;0.52;;;;;;;10.80;100.00;100394.53;3606132;39;20058;-66
2023/12/24 03:48:58;;;;;;;1.48;0.80;;;;;;;10.79;100.00;100390.97;3608234;39;20050;-66
2023/12/24 03:51:24;;;;;;;0.45;0.25;;;;;;;10.76;100.00;100380.44;3606595;39;20055;-65
2023/12/24 03:53:49;;;;;;;1.13;0.40;;;;;;;10.82;100.00;100379.16;3605608;39;20058;-66
2023/12/24 03:56:15;;;;;;;3.65;0.70;;;;;;;10.84;100.00;100359.22;3607738;39;20051;-66
2023/12/24 03:58:41;;;;;;;0.93;0.45;;;;;;;10.65;100.00;100326.56;3609095;39;20120;-65
2023/12/24 04:01:11;;;;;;;1.10;0.45;;;;;;;10.85;100.00;100379.78;3608046;39;20425;-65
2023/12/24 04:03:37;;;;;;;0.77;0.40;;;;;;;10.37;100.00;100296.25;3608705;39;20047;-65
2023/12/24 04:06:15;;;;;;;1.80;0.60;;;;;;;10.84;100.00;100383.44;3609948;39;20051;-65
2023/12/24 04:08:42;;;;;;;0.38;0.38;;;;;;;10.86;100.00;100369.91;3609002;39;20051;-65
2023/12/24 04:11:16;;;;;;;1.50;0.50;;;;;;;10.89;100.00;100381.28;3608887;39;20054;-65
2023/12/24 04:13:42;;;;;;;0.70;0.50;;;;;;;10.81;100.00;100359.44;3609733;39;20078;-64
2023/12/24 04:16:09;;;;;;;0.52;0.52;;;;;;;10.88;100.00;100379.59;3611327;39;20050;-65
2023/12/24 04:18:34;;;;;;;1.50;0.50;;;;;;;10.87;100.00;100372.47;3608495;39;20092;-64
2023/12/24 04:21:00;;;;;;;0.55;0.38;;;;;;;10.88;100.00;100363.44;3609049;39;20282;-64
2023/12/24 04:23:26;;;;;;;0.55;0.55;;;;;;;10.88;100.00;100355.38;3607044;39;20376;-65
2023/12/24 04:25:51;;;;;;;0.55;0.45;;;;;;;10.89;100.00;100357.09;3601626;39;20058;-65
2023/12/24 04:28:17;;;;;;;0.40;0.40;;;;;;;10.89;100.00;100364.31;3609373;39;20062;-65
2023/12/24 04:30:43;;;;;;;0.35;0.35;;;;;;;10.90;100.00;100361.50;3609276;39;20081;-65
2023/12/24 04:33:08;;;;;;;0.80;0.40;;;;;;;10.88;100.00;100352.69;3608020;39;20047;-65
2023/12/24 04:35:34;;;;;;;0.22;0.22;;;;;;;10.91;100.00;100357.84;3607792;39;20284;-65
2023/12/24 04:38:00;;;;;;;0.85;0.50;;;;;;;10.88;100.00;100363.44;3610228;39;20062;-65
2023/12/24 04:40:26;;;;;;;0.30;0.30;;;;;;;10.41;100.00;100275.41;3609268;39;20087;-65
2023/12/24 04:42:51;;;;;;;0.38;0.38;;;;;;;10.90;100.00;100360.63;3612624;39;20082;-64
2023/12/24 04:45:17;;;;;;;0.40;0.40;;;;;;;10.90;100.00;100349.88;3608357;39;20058;-65
2023/12/24 04:47:42;;;;;;;0.55;0.55;;;;;;;10.91;100.00;100347.09;3606759;39;20039;-65
2023/12/24 04:50:09;;;;;;;1.65;0.32;;;;;;;10.91;100.00;100354.31;3609348;39;20054;-65
2023/12/24 04:52:38;;;;;;;0.30;0.30;;;;;;;10.91;100.00;100354.31;3608086;39;20120;-65
2023/12/24 04:55:05;;;;;;;0.30;0.30;;;;;;;10.91;100.00;100348.94;3608613;39;20055;-64
2023/12/24 04:57:31;;;;;;;0.43;0.40;;;;;;;10.90;100.00;100358.81;3605987;39;20422;-65
2023/12/24 04:59:58;;;;;;;0.50;0.50;;;;;;;10.90;100.00;100348.03;3609153;39;20063;-65
2023/12/24 05:02:23;;;;;;;0.63;0.40;;;;;;;10.91;100.00;100344.41;3608498;39;20067;-65
2023/12/24 05:04:49;;;;;;;1.10;0.40;;;;;;;10.93;100.00;100349.66;3610147;39;20073;-63
2023/12/24 05:07:15;;;;;;;0.50;0.50;;;;;;;10.95;100.00;100344.19;3608446;39;20286;-64
2023/12/24 05:09:42;;;;;;;2.30;0.55;;;;;;;10.94;100.00;100340.63;3606690;39;20043;-64
2023/12/24 05:12:08;;;;;;;0.30;0.30;;;;;;;10.92;100.00;100338.06;3610121;39;20067;-64
2023/12/24 05:14:34;;;;;;;0.30;0.30;;;;;;;10.95;100.00;100347.75;3608565;39;20265;-64
2023/12/24 05:17:02;;;;;;;0.57;0.47;;;;;;;10.96;100.00;100345.91;3607852;39;20057;-64
2023/12/24 05:19:28;;;;;;;0.68;0.50;;;;;;;10.98;100.00;100341.28;3607658;39;20092;-64
2023/12/24 05:21:54;;;;;;;0.40;0.40;;;;;;;10.99;100.00;100351.06;3605280;39;20135;-64
2023/12/24 05:24:21;;;;;;;1.38;1.20;;;;;;;10.99;100.00;100348.38;3608409;39;20051;-63
2023/12/24 05:26:46;;;;;;;0.20;0.20;;;;;;;10.99;100.00;100341.16;3608677;39;20059;-64
2023/12/24 05:29:12;;;;;;;0.40;0.40;;;;;;;10.99;100.00;100337.63;3609052;39;20062;-63
2023/12/24 05:31:39;;;;;;;0.30;0.30;;;;;;;11.01;100.00;100335.69;3609213;39;20343;-64
2023/12/24 05:34:05;;;;;;;0.40;0.40;;;;;;;10.99;100.00;100332.25;3605961;39;20055;-63
2023/12/24 05:36:32;;;;;;;0.40;0.40;;;;;;;11.00;100.00;100339.31;3609183;39;20125;-63
2023/12/24 05:38:59;;;;;;;0.80;0.43;;;;;;;11.01;100.00;100343.75;3610036;39;20058;-63
2023/12/24 05:41:24;;;;;;;0.45;0.32;;;;;;;11.01;100.00;100335.69;3608616;39;20057;-63
2023/12/24 05:43:50;;;;;;;0.40;0.40;;;;;;;11.01;100.00;100330.31;3610026;39;20058;-63
2023/12/24 05:46:16;;;;;;;0.30;0.30;;;;;;;11.03;100.00;100337.28;3610649;39;20054;-63
2023/12/24 05:48:42;;;;;;;0.40;0.40;;;;;;;11.03;100.00;100331.03;3610999;39;20066;-64
2023/12/24 05:51:09;;;;;;;0.38;0.38;;;;;;;11.05;100.00;100332.66;3610536;39;20067;-64
2023/12/24 05:53:35;;;;;;;0.50;0.50;;;;;;;11.04;100.00;100339.00;3603371;39;20348;-63
2023/12/24 05:56:00;;;;;;;0.32;0.32;;;;;;;11.06;100.00;100338.88;3610997;39;20090;-63
2023/12/24 05:58:26;;;;;;;0.35;0.35;;;;;;;11.06;100.00;100333.50;3610244;39;20056;-63
2023/12/24 06:00:52;;;;;;;0.38;0.35;;;;;;;11.11;100.00;100331.34;3611901;39;20051;-63
2023/12/24 06:03:18;;;;;;;0.20;0.20;;;;;;;11.05;100.00;100304.91;3609705;39;20082;-63
2023/12/24 06:05:44;;;;;;;0.40;0.40;;;;;;;11.09;100.00;100320.69;3611021;39;20391;-63
2023/12/24 06:08:13;;;;;;;0.50;0.50;;;;;;;11.12;100.00;100333.06;3610233;39;20065;-63
2023/12/24 06:10:39;;;;;;;0.57;0.30;;;;;;;11.07;100.00;100325.34;3602128;39;20112;-64
2023/12/24 06:13:04;;;;;;;0.47;0.47;;;;;;;10.52;100.00;100224.44;3610774;39;20054;-64
2023/12/24 06:15:31;;;;;;;0.20;0.20;;;;;;;11.14;100.00;100329.31;3610130;39;20055;-65
2023/12/24 06:17:56;;;;;;;0.52;0.30;;;;;;;11.17;100.00;100330.91;3609213;39;20048;-65
2023/12/24 06:20:22;;;;;;;0.98;0.40;;;;;;;11.16;100.00;100323.81;3608178;39;20058;-65
2023/12/24 06:22:47;;;;;;;0.30;0.30;;;;;;;11.11;100.00;100312.53;3609070;39;20653;-65
2023/12/24 06:25:13;;;;;;;0.30;0.30;;;;;;;11.17;100.00;100316.63;3609474;39;20288;-65
2023/12/24 06:27:39;;;;;;;0.30;0.30;;;;;;;11.17;100.00;100314.78;3610921;39;20124;-65
2023/12/24 06:30:06;;;;;;;0.45;0.45;;;;;;;11.20;100.00;100303.78;3611670;39;20311;-65
2023/12/24 06:32:31;;;;;;;0.40;0.40;;;;;;;11.21;100.00;100302.81;3610650;39;20057;-65
2023/12/24 06:34:58;;;;;;;0.77;0.50;;;;;;;10.76;100.00;100219.13;3608546;39;20043;-65
2023/12/24 06:37:23;;;;;;;0.20;0.20;;;;;;;11.22;100.00;100295.59;3611052;39;20045;-65
2023/12/24 06:39:49;;;;;;;1.08;0.40;;;;;;;11.22;100.00;100290.22;3611489;39;20062;-65
2023/12/24 06:42:15;;;;;;;0.13;0.13;;;;;;;11.19;100.00;100272.47;3610508;39;20050;-65
2023/12/24 06:44:43;;;;;;;1.05;0.50;;;;;;;11.25;100.00;100298.91;3607952;39;20323;-64
2023/12/24 06:47:09;;;;;;;0.70;0.32;;;;;;;11.25;100.00;100290.84;3608907;39;20045;-65
2023/12/24 06:49:35;;;;;;;0.60;0.60;;;;;;;11.21;100.00;100297.44;3607498;39;20058;-65
2023/12/24 06:52:00;;;;;;;1.30;0.30;;;;;;;11.22;100.00;100279.47;3610866;39;20087;-65
2023/12/24 06:54:26;;;;;;;0.47;0.40;;;;;;;11.29;100.00;100310.31;3610660;39;20299;-65
2023/12/24 06:56:51;;;;;;;0.40;0.30;;;;;;;11.28;100.00;100285.25;3608925;39;20051;-65
2023/12/24 06:59:17;;;;;;;0.40;0.40;;;;;;;11.22;100.00;100280.31;3610672;39;20089;-66
2023/12/24 07:01:43;;;;;;;0.40;0.40;;;;;;;11.29;100.00;100281.59;3610513;39;20063;-65
2023/12/24 07:04:08;;;;;;;0.60;0.43;;;;;;;11.31;100.00;100290.41;3612330;39;20051;-65
2023/12/24 07:06:34;;;;;;;0.70;0.57;;;;;;;11.32;100.00;100278.69;3608408;39;20347;-65
2023/12/24 07:08:59;;;;;;;0.40;0.40;;;;;;;11.34;100.00;100274.03;3607805;39;20350;-66
2023/12/24 07:11:25;;;;;;;1.02;0.60;;;;;;;11.33;100.00;100284.94;3607175;39;20055;-65
2023/12/24 07:13:51;;;;;;;0.95;0.60;;;;;;;11.33;100.00;100277.69;3606759;39;20059;-65
2023/12/24 07:16:16;;;;;;;0.52;0.52;;;;;;;11.36;100.00;100277.47;3606167;39;20050;-65
2023/12/24 07:18:42;;;;;;;0.75;0.70;;;;;;;11.37;100.00;100292.63;3605865;39;20043;-65
2023/12/24 07:21:07;;;;;;;0.70;0.70;;;;;;;11.37;100.00;100287.25;3606128;39;20135;-64
2023/12/24 07:23:33;;;;;;;0.95;0.50;;;;;;;11.38;100.00;100283.63;3606552;39;20059;-65
2023/12/24 07:25:59;;;;;;;0.90;0.70;;;;;;;11.35;100.00;100278.47;3606471;39;20058;-65
2023/12/24 07:28:24;;;;;;;0.73;0.73;;;;;;;10.88;100.00;100201.25;3605800;39;20058;-65
2023/12/24 07:30:50;;;;;;;0.70;0.70;;;;;;;11.39;100.00;100290.72;3607449;39;20054;-65
2023/12/24 07:33:16;;;;;;;1.25;0.80;;;;;;;11.41;100.00;100297.78;3599828;39;20047;-65
2023/12/24 07:35:41;;;;;;;1.33;0.90;;;;;;;11.39;100.00;100290.72;3606867;39;20120;-65
2023/12/24 07:38:07;;;;;;;1.30;0.70;;;;;;;11.41;100.00;100289.72;3599957;39;20395;-65
2023/12/24 07:40:32;;;;;;;1.30;1.05;;;;;;;11.42;100.00;100296.81;3606113;39;20062;-65
2023/12/24 07:42:59;;;;;;;0.82;0.82;;;;;;;11.43;100.00;100293.16;3607659;39;20047;-65
2023/12/24 07:45:26;;;;;;;0.95;0.60;;;;;;;11.43;100.00;100306.63;3604010;39;20043;-66
2023/12/24 07:47:52;;;;;;;0.68;0.50;;;;;;;11.44;100.00;100300.25;3606367;39;20043;-65
2023/12/24 07:50:18;;;;;;;0.55;0.52;;;;;;;11.42;100.00;100308.47;3605947;39;20055;-65
2023/12/24 07:52:44;;;;;;;0.98;0.98;;;;;;;11.44;100.00;100294.88;3605548;39;20292;-65
2023/12/24 07:55:10;;;;;;;0.70;0.60;;;;;;;10.81;100.00;100194.59;3605964;39;20051;-65
2023/12/24 07:57:35;;;;;;;1.48;0.70;;;;;;;10.77;100.00;100188.56;3604000;39;20070;-65
2023/12/24 08:00:08;;;;;;;0.85;0.60;;;;;;;11.48;100.00;100296.38;3607106;39;20061;-65
2023/12/24 08:02:33;;;;;;;1.23;0.60;;;;;;;11.44;100.00;100284.97;3610541;39;20077;-65
2023/12/24 08:05:00;;;;;;;0.88;0.77;;;;;;;11.44;100.00;100292.19;3605914;39;20407;-65
2023/12/24 08:07:25;;;;;;;0.73;0.40;;;;;;;11.46;100.00;100298.34;3605811;39;20065;-66
2023/12/24 08:09:51;;;;;;;0.73;0.73;;;;;;;11.44;100.00;100287.66;3605778;39;20380;-65
2023/12/24 08:12:17;;;;;;;0.57;0.45;;;;;;;11.43;100.00;100288.66;3605555;39;20063;-65
2023/12/24 08:14:42;;;;;;;0.40;0.40;;;;;;;11.44;100.00;100289.50;3606225;39;20130;-65
2023/12/24 08:17:08;;;;;;;0.50;0.40;;;;;;;11.45;100.00;100302.88;3608521;39;20043;-65
2023/12/24 08:19:33;;;;;;;0.73;0.30;;;;;;;11.46;100.00;100301.88;3606605;39;20736;-65
2023/12/24 08:21:59;;;;;;;0.55;0.55;;;;;;;11.46;100.00;100295.63;3597590;39;20186;-65
2023/12/24 08:24:25;;;;;;;0.50;0.50;;;;;;;11.51;100.00;100302.41;3606877;39;20394;-65
2023/12/24 08:26:51;;;;;;;0.85;0.52;;;;;;;11.51;100.00;100296.13;3606780;39;20054;-65
2023/12/24 08:29:17;;;;;;;0.40;0.40;;;;;;;11.54;100.00;100303.97;3608788;39;20054;-65
2023/12/24 08:31:42;;;;;;;0.47;0.47;;;;;;;11.52;100.00;100298.72;3605848;39;20066;-65
2023/12/24 08:34:08;;;;;;;0.63;0.57;;;;;;;11.53;100.00;100288.81;3606283;39;20062;-65
2023/12/24 08:36:33;;;;;;;1.42;0.50;;;;;;;11.53;100.00;100280.75;3607308;39;20059;-65
2023/12/24 08:38:59;;;;;;;0.50;0.50;;;;;;;11.55;100.00;100284.19;3606691;39;20101;-65
2023/12/24 08:41:25;;;;;;;0.85;0.40;;;;;;;11.54;100.00;100282.44;3605610;39;20051;-65
2023/12/24 08:43:50;;;;;;;0.95;0.52;;;;;;;11.59;100.00;100291.06;3607093;39;20421;-64
2023/12/24 08:46:16;;;;;;;0.40;0.40;;;;;;;11.58;100.00;100289.34;3605204;39;20047;-64
2023/12/24 08:48:42;;;;;;;0.63;0.38;;;;;;;11.59;100.00;100283.84;3606053;39;20062;-65
2023/12/24 08:51:08;;;;;;;0.75;0.40;;;;;;;11.64;100.00;100291.59;3606466;39;20399;-65
2023/12/24 08:53:33;;;;;;;0.68;0.50;;;;;;;11.63;100.00;100289.84;3606222;39;20062;-65
2023/12/24 08:55:59;;;;;;;3.22;2.42;;;;;;;11.68;100.00;100281.44;3608268;39;21096;-65
2023/12/24 08:58:24;;;;;;;1.70;0.50;;;;;;;11.67;100.00;100279.69;3607684;39;20047;-65
2023/12/24 09:00:50;;;;;;;0.40;0.40;;;;;;;11.68;100.00;100279.59;3605619;39;20059;-65
2023/12/24 09:03:17;;;;;;;1.95;0.50;;;;;;;11.68;100.00;100276.91;3604458;39;20079;-65
2023/12/24 09:05:42;;;;;;;0.55;0.50;;;;;;;11.70;100.00;100280.31;3605913;39;20063;-64
2023/12/24 09:08:08;;;;;;;0.60;0.60;;;;;;;11.69;100.00;100284.00;3606700;39;20062;-65
2023/12/24 09:10:34;;;;;;;1.35;0.47;;;;;;;11.62;100.00;100291.69;3605352;39;20063;-65
2023/12/24 09:12:59;;;;;;;1.15;0.50;;;;;;;11.72;100.00;100299.94;3608702;39;20383;-65
2023/12/24 09:15:25;;;;;;;0.70;0.55;;;;;;;11.77;100.00;100308.53;3605526;39;20063;-65
2023/12/24 09:17:50;;;;;;;0.60;0.60;;;;;;;11.76;100.00;100312.19;3605396;39;20069;-65
2023/12/24 09:20:16;;;;;;;0.85;0.60;;;;;;;11.77;100.00;100318.44;3608094;39;20043;-65
2023/12/24 09:22:41;;;;;;;2.55;2.30;;;;;;;11.79;100.00;100301.19;3608203;39;20051;-65
2023/12/24 09:25:08;;;;;;;1.17;1.10;;;;;;;11.81;100.00;100299.25;3610610;39;20051;-65
2023/12/24 09:27:33;;;;;;;0.85;0.50;;;;;;;11.81;100.00;100299.25;3608911;39;20399;-65
2023/12/24 09:30:04;;;;;;;0.68;0.68;;;;;;;11.80;100.00;100292.16;3608215;39;20076;-65
2023/12/24 09:32:32;;;;;;;0.82;0.80;;;;;;;11.85;100.00;100299.91;3608048;39;20043;-65
2023/12/24 09:34:58;;;;;;;0.88;0.60;;;;;;;11.83;100.00;100286.53;3609139;39;20045;-65
2023/12/24 09:37:26;;;;;;;0.70;0.70;;;;;;;11.87;100.00;100286.31;3606826;39;20083;-65
2023/12/24 09:39:52;;;;;;;0.50;0.50;;;;;;;11.88;100.00;100288.03;3612496;39;20049;-65
2023/12/24 09:42:18;;;;;;;0.40;0.40;;;;;;;11.89;100.00;100290.59;3605686;39;20051;-66
2023/12/24 09:44:45;;;;;;;1.25;0.63;;;;;;;11.88;100.00;100278.13;3608359;39;20061;-65
2023/12/24 09:47:11;;;;;;;2.88;0.90;;;;;;;11.81;100.00;100277.69;3606408;39;20051;-65
2023/12/24 09:49:36;;;;;;;1.05;0.68;;;;;;;11.90;100.00;100286.09;3608509;39;20323;-65
2023/12/24 09:52:02;;;;;;;0.95;0.85;;;;;;;11.35;100.00;100200.44;3608098;39;20055;-65
2023/12/24 09:54:28;;;;;;;0.80;0.80;;;;;;;11.91;100.00;100288.66;3609602;39;20387;-65
2023/12/24 09:56:55;;;;;;;1.40;1.30;;;;;;;11.93;100.00;100296.63;3609352;39;20050;-65
2023/12/24 09:59:21;;;;;;;1.73;1.52;;;;;;;11.95;100.00;100283.91;3606458;39;20066;-65
2023/12/24 10:01:47;;;;;;;1.98;1.83;;;;;;;11.95;100.00;100278.50;3602043;39;20114;-64
2023/12/24 10:04:14;;;;;;;2.55;2.35;;;;;;;11.98;100.00;100283.66;3607186;39;20128;-64
2023/12/24 10:06:57;;;;;;;3.50;3.20;;;;;;;11.97;100.00;100298.97;3598040;39;20063;-64
2023/12/24 10:09:40;;;;;;;3.47;3.00;;;;;;;11.98;100.00;100297.97;3608283;39;20051;-65
2023/12/24 10:12:08;;;;;;;3.13;2.80;;;;;;;12.01;100.00;100289.66;3607128;39;20380;-65
2023/12/24 10:14:36;;;;;;;4.88;3.40;;;;;;;12.03;100.00;100286.88;3608597;39;20075;-65
2023/12/24 10:17:03;;;;;;;5.50;3.88;;;;;;;12.04;100.00;100285.88;3607428;39;20043;-65
2023/12/24 10:19:30;;;;;;;6.38;4.15;;;;;;;12.12;100.00;100280.78;3597452;39;20109;-64
2023/12/24 10:22:05;;;;;;;4.80;4.22;;;;;;;12.12;100.00;100280.78;3607899;39;20065;-64
2023/12/24 10:24:38;;;;;;;4.65;4.10;;;;;;;12.13;100.00;100290.56;3606536;39;20063;-64
2023/12/24 10:27:10;;;;;;;6.70;4.75;;;;;;;12.16;100.00;100286.78;3608934;39;20046;-64
2023/12/24 10:29:39;;;;;;;9.30;4.85;;;;;;;12.18;100.00;100290.19;3608468;39;20155;-64
2023/12/24 10:32:09;;;;;;;7.32;5.25;;;;;;;12.20;100.00;100277.47;3607659;39;20058;-64
2023/12/24 10:34:35;;;;;;;7.50;4.60;;;;;;;12.21;100.00;100263.91;3607825;39;20300;-64
2023/12/24 10:37:29;;;;;;;6.78;4.35;;;;;;;12.26;100.00;100275.16;3608896;39;20051;-64
2023/12/24 10:40:05;;;;;;;5.88;4.18;;;;;;;12.27;100.00;100268.81;3607181;39;20043;-64
2023/12/24 10:42:31;;;;;;;5.93;4.13;;;;;;;12.24;100.00;100247.50;3606945;39;20384;-65
2023/12/24 10:44:56;;;;;;;9.07;4.57;;;;;;;12.26;100.00;100244.66;3608152;39;20050;-64
2023/12/24 10:47:22;;;;;;;8.63;4.63;;;;;;;12.32;100.00;100253.13;3607104;39;20053;-63
2023/12/24 10:49:47;;;;;;;7.30;3.92;;;;;;;12.36;100.00;100239.41;3608482;39;20066;-64
2023/12/24 10:52:13;;;;;;;8.85;3.70;;;;;;;12.37;100.00;100236.63;3608233;39;20058;-64
2023/12/24 10:54:41;;;;;;;6.47;3.95;;;;;;;12.40;100.00;100238.19;3608473;39;20051;-64
2023/12/24 10:57:50;;;;;;;7.53;3.45;;;;;;;12.43;100.00;100235.25;3608207;39;20059;-64
2023/12/24 11:00:16;;;;;;;4.78;3.30;;;;;;;12.48;100.00;100230.38;3600027;39;20087;-65
2023/12/24 11:02:49;;;;;;;4.72;2.65;;;;;;;12.48;100.00;100239.31;3610502;39;20285;-66
2023/12/24 11:05:43;;;;;;;7.00;2.85;;;;;;;12.49;100.00;100237.47;3608776;39;20116;-66
2023/12/24 11:08:21;;;;;;;5.80;2.45;;;;;;;12.49;100.00;100237.47;3607803;39;20050;-66
2023/12/24 11:10:55;;;;;;;5.50;3.30;;;;;;;11.91;100.00;100139.66;3609799;39;20484;-67
2023/12/24 11:13:33;;;;;;;2.97;2.22;;;;;;;12.48;100.00;100227.66;3607900;39;20058;-66
2023/12/24 11:16:10;;;;;;;4.70;2.55;;;;;;;11.88;100.00;100116.53;3608553;39;20342;-67
2023/12/24 11:18:48;;;;;;;3.22;2.08;;;;;;;11.87;100.00;100116.66;3610703;39;20039;-66